createdAt,value
2022-08-30T00:00:53.430Z,990.82
2022-08-30T00:01:53.420Z,990.79
2022-08-30T00:02:53.510Z,990.83
2022-08-30T00:03:53.515Z,990.75
2022-08-30T00:04:53.389Z,990.76
2022-08-30T00:05:53.383Z,990.75
2022-08-30T00:06:53.376Z,990.80
2022-08-30T00:07:53.395Z,990.78
2022-08-30T00:08:53.393Z,990.76
2022-08-30T00:09:53.373Z,990.77
2022-08-30T00:10:53.330Z,990.75
2022-08-30T00:11:53.327Z,990.77
2022-08-30T00:12:53.322Z,990.83
2022-08-30T00:13:53.304Z,990.87
2022-08-30T00:14:53.287Z,990.90
2022-08-30T00:15:53.392Z,990.94
2022-08-30T00:16:53.268Z,990.92
2022-08-30T00:17:53.280Z,990.95
2022-08-30T00:18:53.258Z,990.95
2022-08-30T00:19:53.258Z,990.98
2022-08-30T00:20:53.232Z,991.01
2022-08-30T00:21:53.224Z,991.01
2022-08-30T00:22:53.233Z,991.00
2022-08-30T00:23:53.191Z,991.01
2022-08-30T00:24:53.187Z,991.03
2022-08-30T00:25:53.170Z,991.05
2022-08-30T00:26:53.164Z,991.00
2022-08-30T00:27:53.151Z,990.95
2022-08-30T00:28:53.157Z,990.93
2022-08-30T00:29:53.130Z,990.97
2022-08-30T00:30:53.199Z,990.91
2022-08-30T00:31:53.163Z,990.99
2022-08-30T00:32:53.099Z,990.93
2022-08-30T00:33:53.102Z,990.94
2022-08-30T00:34:53.089Z,990.94
2022-08-30T00:35:53.089Z,990.95
2022-08-30T00:36:53.075Z,990.99
2022-08-30T00:37:53.057Z,990.95
2022-08-30T00:38:53.050Z,990.97
2022-08-30T00:39:53.026Z,991.01
2022-08-30T00:40:53.019Z,991.06
2022-08-30T00:41:53.006Z,991.05
2022-08-30T00:42:58.119Z,991.07
2022-08-30T00:43:54.003Z,991.12
2022-08-30T00:44:52.972Z,991.12
2022-08-30T00:45:52.992Z,991.16
2022-08-30T00:46:52.952Z,991.19
2022-08-30T00:47:52.954Z,991.17
2022-08-30T00:48:52.950Z,991.23
2022-08-30T00:49:52.922Z,991.22
2022-08-30T00:50:52.913Z,991.19
2022-08-30T00:51:52.909Z,991.22
2022-08-30T00:52:52.889Z,991.21
2022-08-30T00:53:52.898Z,991.21
2022-08-30T00:54:52.868Z,991.21
2022-08-30T00:55:52.877Z,991.15
2022-08-30T00:56:52.856Z,991.18
2022-08-30T00:57:52.839Z,991.14
2022-08-30T00:58:52.852Z,991.11
2022-08-30T00:59:52.816Z,991.16
2022-08-30T01:00:52.814Z,991.13
2022-08-30T01:01:52.898Z,991.14
2022-08-30T01:02:52.841Z,991.15
2022-08-30T01:03:52.795Z,991.18
2022-08-30T01:04:52.766Z,991.24
2022-08-30T01:05:52.758Z,991.20
2022-08-30T01:06:52.743Z,991.22
2022-08-30T01:07:52.732Z,991.20
2022-08-30T01:08:52.739Z,991.20
2022-08-30T01:09:52.712Z,991.23
2022-08-30T01:10:52.710Z,991.19
2022-08-30T01:11:52.708Z,991.21
2022-08-30T01:12:52.700Z,991.19
2022-08-30T01:13:52.671Z,991.19
2022-08-30T01:14:52.696Z,991.17
2022-08-30T01:15:52.712Z,991.18
2022-08-30T01:16:52.636Z,991.12
2022-08-30T01:17:52.643Z,991.09
2022-08-30T01:18:52.618Z,991.09
2022-08-30T01:19:52.610Z,991.14
2022-08-30T01:20:52.602Z,991.10
2022-08-30T01:21:52.617Z,991.10
2022-08-30T01:22:52.610Z,991.09
2022-08-30T01:23:52.567Z,991.14
2022-08-30T01:24:52.558Z,991.17
2022-08-30T01:25:52.547Z,991.12
2022-08-30T01:26:52.561Z,991.17
2022-08-30T01:27:52.528Z,991.17
2022-08-30T01:28:52.528Z,991.15
2022-08-30T01:29:52.502Z,991.16
2022-08-30T01:30:52.514Z,991.14
2022-08-30T01:31:52.480Z,991.15
2022-08-30T01:32:52.469Z,991.12
2022-08-30T01:33:52.483Z,991.14
2022-08-30T01:34:52.450Z,991.08
2022-08-30T01:35:52.452Z,991.14
2022-08-30T01:36:52.427Z,991.12
2022-08-30T01:37:52.423Z,991.12
2022-08-30T01:38:52.571Z,991.12
2022-08-30T01:39:52.425Z,991.09
2022-08-30T01:40:52.396Z,991.12
2022-08-30T01:41:52.376Z,991.10
2022-08-30T01:42:52.365Z,991.13
2022-08-30T01:43:52.370Z,991.09
2022-08-30T01:44:52.342Z,991.12
2022-08-30T01:45:52.414Z,991.13
2022-08-30T01:46:52.336Z,991.14
2022-08-30T01:47:52.325Z,991.15
2022-08-30T01:48:53.984Z,991.10
2022-08-30T01:49:52.294Z,991.21
2022-08-30T01:50:52.282Z,991.20
2022-08-30T01:52:00.471Z,991.20
2022-08-30T01:52:53.261Z,991.22
2022-08-30T01:53:52.265Z,991.21
2022-08-30T01:54:52.243Z,991.20
2022-08-30T01:55:52.231Z,991.21
2022-08-30T01:56:52.216Z,991.22
2022-08-30T01:57:52.209Z,991.27
2022-08-30T01:58:52.238Z,991.26
2022-08-30T01:59:52.218Z,991.20
2022-08-30T02:00:52.186Z,991.23
2022-08-30T02:01:52.243Z,991.20
2022-08-30T02:02:52.166Z,991.24
2022-08-30T02:03:52.202Z,991.24
2022-08-30T02:04:52.140Z,991.22
2022-08-30T02:05:52.141Z,991.18
2022-08-30T02:06:52.139Z,991.19
2022-08-30T02:07:52.118Z,991.16
2022-08-30T02:08:52.096Z,991.12
2022-08-30T02:09:52.084Z,991.14
2022-08-30T02:10:52.070Z,991.14
2022-08-30T02:11:52.060Z,991.15
2022-08-30T02:12:52.092Z,991.17
2022-08-30T02:13:52.049Z,991.17
2022-08-30T02:14:52.046Z,991.20
2022-08-30T02:15:52.021Z,991.24
2022-08-30T02:16:52.088Z,991.23
2022-08-30T02:17:52.026Z,991.26
2022-08-30T02:18:52.011Z,991.27
2022-08-30T02:19:52.036Z,991.24
2022-08-30T02:20:51.970Z,991.27
2022-08-30T02:21:51.959Z,991.25
2022-08-30T02:22:51.951Z,991.27
2022-08-30T02:23:51.949Z,991.31
2022-08-30T02:24:51.927Z,991.35
2022-08-30T02:25:51.917Z,991.30
2022-08-30T02:26:51.911Z,991.37
2022-08-30T02:27:51.911Z,991.31
2022-08-30T02:28:51.950Z,991.31
2022-08-30T02:29:51.873Z,991.31
2022-08-30T02:30:51.990Z,991.24
2022-08-30T02:31:51.856Z,991.21
2022-08-30T02:32:51.846Z,991.26
2022-08-30T02:33:51.851Z,991.23
2022-08-30T02:34:51.820Z,991.22
2022-08-30T02:35:51.809Z,991.24
2022-08-30T02:36:51.801Z,991.24
2022-08-30T02:37:51.805Z,991.18
2022-08-30T02:38:51.783Z,991.23
2022-08-30T02:39:51.768Z,991.19
2022-08-30T02:40:51.778Z,991.21
2022-08-30T02:41:51.753Z,991.22
2022-08-30T02:42:51.752Z,991.23
2022-08-30T02:43:51.768Z,991.23
2022-08-30T02:44:51.720Z,991.22
2022-08-30T02:45:51.807Z,991.18
2022-08-30T02:46:51.693Z,991.14
2022-08-30T02:47:51.684Z,991.13
2022-08-30T02:48:51.687Z,991.13
2022-08-30T02:49:51.664Z,991.07
2022-08-30T02:50:51.665Z,991.05
2022-08-30T02:51:51.645Z,991.06
2022-08-30T02:52:51.651Z,991.04
2022-08-30T02:53:51.658Z,991.05
2022-08-30T02:54:51.663Z,991.06
2022-08-30T02:55:51.620Z,991.04
2022-08-30T02:56:51.596Z,991.07
2022-08-30T02:57:51.591Z,991.07
2022-08-30T02:58:51.581Z,991.06
2022-08-30T02:59:51.558Z,991.02
2022-08-30T03:00:51.623Z,991.02
2022-08-30T03:01:51.537Z,990.96
2022-08-30T03:02:51.526Z,990.94
2022-08-30T03:03:51.607Z,990.99
2022-08-30T03:04:51.520Z,990.93
2022-08-30T03:05:51.514Z,990.91
2022-08-30T03:06:51.486Z,990.88
2022-08-30T03:07:51.474Z,990.91
2022-08-30T03:08:51.480Z,990.90
2022-08-30T03:09:51.465Z,990.86
2022-08-30T03:10:51.473Z,990.86
2022-08-30T03:11:51.441Z,990.83
2022-08-30T03:12:51.421Z,990.85
2022-08-30T03:13:51.429Z,990.80
2022-08-30T03:14:51.402Z,990.84
2022-08-30T03:15:51.391Z,990.84
2022-08-30T03:16:51.447Z,990.82
2022-08-30T03:17:51.384Z,990.81
2022-08-30T03:18:51.382Z,990.83
2022-08-30T03:19:51.353Z,990.89
2022-08-30T03:20:54.617Z,990.85
2022-08-30T03:21:51.332Z,990.84
2022-08-30T03:22:51.331Z,990.85
2022-08-30T03:23:51.337Z,990.91
2022-08-30T03:24:51.298Z,990.90
2022-08-30T03:25:51.289Z,990.87
2022-08-30T03:26:51.277Z,990.90
2022-08-30T03:27:51.268Z,990.94
2022-08-30T03:28:51.270Z,990.97
2022-08-30T03:29:51.247Z,991.00
2022-08-30T03:30:51.240Z,991.04
2022-08-30T03:31:53.011Z,991.08
2022-08-30T03:32:51.452Z,991.07
2022-08-30T03:33:51.239Z,991.09
2022-08-30T03:34:51.226Z,991.08
2022-08-30T03:35:51.186Z,991.06
2022-08-30T03:36:51.181Z,991.11
2022-08-30T03:37:56.147Z,991.13
2022-08-30T03:38:52.194Z,991.16
2022-08-30T03:39:51.143Z,991.12
2022-08-30T03:40:51.135Z,991.09
2022-08-30T03:41:51.126Z,991.07
2022-08-30T03:42:51.111Z,991.11
2022-08-30T03:43:51.108Z,991.10
2022-08-30T03:44:51.110Z,991.09
2022-08-30T03:45:51.162Z,991.07
2022-08-30T03:46:51.072Z,991.04
2022-08-30T03:47:51.060Z,991.05
2022-08-30T03:48:51.047Z,991.05
2022-08-30T03:49:51.054Z,991.01
2022-08-30T03:50:51.029Z,991.01
2022-08-30T03:51:51.021Z,991.03
2022-08-30T03:52:51.008Z,991.01
2022-08-30T03:53:51.001Z,991.03
2022-08-30T03:54:50.999Z,991.04
2022-08-30T03:55:50.986Z,991.06
2022-08-30T03:56:50.977Z,991.04
2022-08-30T03:57:50.959Z,991.05
2022-08-30T03:58:50.956Z,991.03
2022-08-30T03:59:50.953Z,991.04
2022-08-30T04:00:51.054Z,991.03
2022-08-30T04:01:51.001Z,991.04
2022-08-30T04:02:50.929Z,991.02
2022-08-30T04:03:50.897Z,991.06
2022-08-30T04:04:50.899Z,991.01
2022-08-30T04:05:50.878Z,991.02
2022-08-30T04:06:50.864Z,991.02
2022-08-30T04:07:50.853Z,990.98
2022-08-30T04:08:50.847Z,990.95
2022-08-30T04:09:50.853Z,990.99
2022-08-30T04:10:50.826Z,990.95
2022-08-30T04:11:50.814Z,990.91
2022-08-30T04:12:50.835Z,990.96
2022-08-30T04:13:50.815Z,990.93
2022-08-30T04:14:50.817Z,990.99
2022-08-30T04:15:50.779Z,990.92
2022-08-30T04:16:50.808Z,990.92
2022-08-30T04:17:50.753Z,990.91
2022-08-30T04:18:50.761Z,990.91
2022-08-30T04:19:50.745Z,990.94
2022-08-30T04:20:50.762Z,990.97
2022-08-30T04:21:50.714Z,990.95
2022-08-30T04:22:50.714Z,990.97
2022-08-30T04:23:50.706Z,990.98
2022-08-30T04:24:50.699Z,991.00
2022-08-30T04:25:50.685Z,990.95
2022-08-30T04:26:50.668Z,991.00
2022-08-30T04:27:50.648Z,990.98
2022-08-30T04:28:50.637Z,990.97
2022-08-30T04:29:50.643Z,990.98
2022-08-30T04:30:50.617Z,991.04
2022-08-30T04:31:50.685Z,991.02
2022-08-30T04:32:50.605Z,991.00
2022-08-30T04:33:50.596Z,991.05
2022-08-30T04:34:50.621Z,991.01
2022-08-30T04:35:50.569Z,990.99
2022-08-30T04:36:50.573Z,991.05
2022-08-30T04:37:50.567Z,990.99
2022-08-30T04:38:50.637Z,991.02
2022-08-30T04:39:50.545Z,991.07
2022-08-30T04:40:50.521Z,991.07
2022-08-30T04:41:50.528Z,991.09
2022-08-30T04:42:50.496Z,991.12
2022-08-30T04:43:50.493Z,991.15
2022-08-30T04:44:50.497Z,991.15
2022-08-30T04:45:50.537Z,991.14
2022-08-30T04:46:50.457Z,991.10
2022-08-30T04:47:50.445Z,991.14
2022-08-30T04:48:50.439Z,991.18
2022-08-30T04:49:50.440Z,991.15
2022-08-30T04:50:50.415Z,991.20
2022-08-30T04:51:50.428Z,991.17
2022-08-30T04:52:50.399Z,991.23
2022-08-30T04:53:50.382Z,991.22
2022-08-30T04:54:50.420Z,991.24
2022-08-30T04:55:50.366Z,991.26
2022-08-30T04:56:50.356Z,991.26
2022-08-30T04:57:50.344Z,991.27
2022-08-30T04:58:50.347Z,991.27
2022-08-30T04:59:50.339Z,991.30
2022-08-30T05:00:51.108Z,991.26
2022-08-30T05:01:50.404Z,991.25
2022-08-30T05:02:50.655Z,991.27
2022-08-30T05:03:50.280Z,991.29
2022-08-30T05:04:50.296Z,991.29
2022-08-30T05:05:50.262Z,991.29
2022-08-30T05:06:50.258Z,991.31
2022-08-30T05:07:50.238Z,991.32
2022-08-30T05:08:51.050Z,991.32
2022-08-30T05:09:50.242Z,991.34
2022-08-30T05:10:50.245Z,991.30
2022-08-30T05:11:50.198Z,991.32
2022-08-30T05:12:50.206Z,991.34
2022-08-30T05:13:50.187Z,991.33
2022-08-30T05:14:50.171Z,991.32
2022-08-30T05:15:50.273Z,991.31
2022-08-30T05:16:50.150Z,991.31
2022-08-30T05:17:50.144Z,991.36
2022-08-30T05:18:50.145Z,991.35
2022-08-30T05:19:50.117Z,991.37
2022-08-30T05:20:50.123Z,991.39
2022-08-30T05:21:50.097Z,991.33
2022-08-30T05:22:53.262Z,991.36
2022-08-30T05:23:50.076Z,991.37
2022-08-30T05:24:50.065Z,991.35
2022-08-30T05:25:50.072Z,991.37
2022-08-30T05:26:50.104Z,991.38
2022-08-30T05:27:50.031Z,991.43
2022-08-30T05:28:50.032Z,991.40
2022-08-30T05:29:50.011Z,991.48
2022-08-30T05:30:50.154Z,991.43
2022-08-30T05:31:50.085Z,991.42
2022-08-30T05:32:50.002Z,991.47
2022-08-30T05:33:49.977Z,991.46
2022-08-30T05:34:49.963Z,991.48
2022-08-30T05:35:49.967Z,991.48
2022-08-30T05:36:49.941Z,991.48
2022-08-30T05:37:49.934Z,991.50
2022-08-30T05:38:49.934Z,991.50
2022-08-30T05:39:51.670Z,991.50
2022-08-30T05:40:49.955Z,991.53
2022-08-30T05:41:49.906Z,991.52
2022-08-30T05:42:49.882Z,991.54
2022-08-30T05:43:49.869Z,991.54
2022-08-30T05:44:49.861Z,991.56
2022-08-30T05:45:49.866Z,991.55
2022-08-30T05:46:49.844Z,991.53
2022-08-30T05:47:49.833Z,991.53
2022-08-30T05:48:49.822Z,991.58
2022-08-30T05:49:49.839Z,991.55
2022-08-30T05:50:49.816Z,991.58
2022-08-30T05:51:49.807Z,991.60
2022-08-30T05:52:49.787Z,991.57
2022-08-30T05:53:49.772Z,991.61
2022-08-30T05:54:49.764Z,991.59
2022-08-30T05:55:49.765Z,991.57
2022-08-30T05:56:49.736Z,991.54
2022-08-30T05:57:49.730Z,991.59
2022-08-30T05:58:49.777Z,991.54
2022-08-30T05:59:49.706Z,991.51
2022-08-30T06:00:49.715Z,991.49
2022-08-30T06:01:49.764Z,991.44
2022-08-30T06:02:49.718Z,991.46
2022-08-30T06:03:49.670Z,991.42
2022-08-30T06:04:49.670Z,991.39
2022-08-30T06:05:49.723Z,991.38
2022-08-30T06:06:49.635Z,991.41
2022-08-30T06:07:49.628Z,991.42
2022-08-30T06:08:49.619Z,991.36
2022-08-30T06:09:49.604Z,991.38
2022-08-30T06:10:49.594Z,991.36
2022-08-30T06:11:49.624Z,991.34
2022-08-30T06:12:49.584Z,991.31
2022-08-30T06:13:49.581Z,991.31
2022-08-30T06:14:49.567Z,991.29
2022-08-30T06:15:49.633Z,991.30
2022-08-30T06:16:49.557Z,991.28
2022-08-30T06:17:49.520Z,991.28
2022-08-30T06:18:49.511Z,991.30
2022-08-30T06:19:49.498Z,991.30
2022-08-30T06:20:50.173Z,991.30
2022-08-30T06:21:49.517Z,991.33
2022-08-30T06:22:49.481Z,991.30
2022-08-30T06:23:49.478Z,991.34
2022-08-30T06:24:58.020Z,991.34
2022-08-30T06:25:50.453Z,991.36
2022-08-30T06:26:49.430Z,991.36
2022-08-30T06:27:53.287Z,991.33
2022-08-30T06:28:50.424Z,991.39
2022-08-30T06:29:49.397Z,991.35
2022-08-30T06:30:49.407Z,991.36
2022-08-30T06:31:49.479Z,991.39
2022-08-30T06:32:49.371Z,991.33
2022-08-30T06:33:49.377Z,991.39
2022-08-30T06:34:49.351Z,991.38
2022-08-30T06:35:58.719Z,991.38
2022-08-30T06:36:50.324Z,991.38
2022-08-30T06:37:49.322Z,991.41
2022-08-30T06:38:49.306Z,991.39
2022-08-30T06:39:49.303Z,991.42
2022-08-30T06:40:49.304Z,991.40
2022-08-30T06:41:49.274Z,991.41
2022-08-30T06:42:49.267Z,991.43
2022-08-30T06:43:49.445Z,991.44
2022-08-30T06:44:49.252Z,991.44
2022-08-30T06:45:49.278Z,991.45
2022-08-30T06:46:49.305Z,991.51
2022-08-30T06:47:49.314Z,991.47
2022-08-30T06:48:49.203Z,991.46
2022-08-30T06:49:49.194Z,991.49
2022-08-30T06:50:49.200Z,991.51
2022-08-30T06:51:49.177Z,991.48
2022-08-30T06:52:49.165Z,991.45
2022-08-30T06:53:49.158Z,991.52
2022-08-30T06:54:49.149Z,991.50
2022-08-30T06:55:49.174Z,991.55
2022-08-30T06:56:58.226Z,991.50
2022-08-30T06:57:50.109Z,991.52
2022-08-30T06:58:49.151Z,991.54
2022-08-30T06:59:49.148Z,991.46
2022-08-30T07:00:49.080Z,991.52
2022-08-30T07:01:49.137Z,991.54
2022-08-30T07:02:49.132Z,991.53
2022-08-30T07:03:49.047Z,991.58
2022-08-30T07:04:49.039Z,991.55
2022-08-30T07:05:49.028Z,991.57
2022-08-30T07:06:49.048Z,991.56
2022-08-30T07:07:49.030Z,991.54
2022-08-30T07:08:49.001Z,991.57
2022-08-30T07:09:49.003Z,991.58
2022-08-30T07:10:48.981Z,991.58
2022-08-30T07:11:48.978Z,991.57
2022-08-30T07:12:48.977Z,991.51
2022-08-30T07:13:48.943Z,991.55
2022-08-30T07:14:48.933Z,991.54
2022-08-30T07:15:48.986Z,991.55
2022-08-30T07:16:51.266Z,991.56
2022-08-30T07:17:48.907Z,991.58
2022-08-30T07:18:48.908Z,991.59
2022-08-30T07:19:48.911Z,991.60
2022-08-30T07:20:48.873Z,991.56
2022-08-30T07:21:48.883Z,991.60
2022-08-30T07:22:48.850Z,991.59
2022-08-30T07:23:53.062Z,991.59
2022-08-30T07:24:48.835Z,991.59
2022-08-30T07:25:48.816Z,991.65
2022-08-30T07:26:48.861Z,991.60
2022-08-30T07:27:48.814Z,991.57
2022-08-30T07:28:48.790Z,991.55
2022-08-30T07:29:49.777Z,991.56
2022-08-30T07:30:48.790Z,991.56
2022-08-30T07:31:48.788Z,991.59
2022-08-30T07:32:48.748Z,991.62
2022-08-30T07:33:48.737Z,991.64
2022-08-30T07:34:48.724Z,991.62
2022-08-30T07:35:49.572Z,991.60
2022-08-30T07:36:48.718Z,991.55
2022-08-30T07:37:48.713Z,991.61
2022-08-30T07:38:48.681Z,991.58
2022-08-30T07:39:48.707Z,991.55
2022-08-30T07:40:48.706Z,991.61
2022-08-30T07:41:48.673Z,991.57
2022-08-30T07:42:48.649Z,991.62
2022-08-30T07:43:48.633Z,991.64
2022-08-30T07:44:48.622Z,991.58
2022-08-30T07:45:48.612Z,991.58
2022-08-30T07:46:48.641Z,991.60
2022-08-30T07:47:48.591Z,991.56
2022-08-30T07:48:48.578Z,991.58
2022-08-30T07:49:48.639Z,991.54
2022-08-30T07:50:48.579Z,991.53
2022-08-30T07:51:48.573Z,991.55
2022-08-30T07:52:48.558Z,991.57
2022-08-30T07:53:48.531Z,991.54
2022-08-30T07:54:48.535Z,991.58
2022-08-30T07:55:48.508Z,991.59
2022-08-30T07:56:48.516Z,991.59
2022-08-30T07:57:48.488Z,991.56
2022-08-30T07:58:48.757Z,991.56
2022-08-30T07:59:48.480Z,991.56
2022-08-30T08:00:48.461Z,991.56
2022-08-30T08:01:48.536Z,991.56
2022-08-30T08:02:48.539Z,991.57
2022-08-30T08:03:48.430Z,991.54
2022-08-30T08:04:48.427Z,991.58
2022-08-30T08:05:48.412Z,991.56
2022-08-30T08:06:48.415Z,991.60
2022-08-30T08:07:48.385Z,991.61
2022-08-30T08:08:48.375Z,991.59
2022-08-30T08:09:48.391Z,991.59
2022-08-30T08:10:48.380Z,991.58
2022-08-30T08:11:48.437Z,991.57
2022-08-30T08:12:48.385Z,991.57
2022-08-30T08:13:53.304Z,991.60
2022-08-30T08:14:49.317Z,991.60
2022-08-30T08:15:48.357Z,991.62
2022-08-30T08:16:48.309Z,991.63
2022-08-30T08:17:48.281Z,991.66
2022-08-30T08:18:48.277Z,991.62
2022-08-30T08:19:48.263Z,991.63
2022-08-30T08:20:48.289Z,991.62
2022-08-30T08:21:50.439Z,991.64
2022-08-30T08:22:49.236Z,991.66
2022-08-30T08:23:48.241Z,991.66
2022-08-30T08:24:48.211Z,991.70
2022-08-30T08:25:48.206Z,991.69
2022-08-30T08:26:48.216Z,991.66
2022-08-30T08:27:48.181Z,991.70
2022-08-30T08:28:48.173Z,991.71
2022-08-30T08:29:48.165Z,991.70
2022-08-30T08:30:48.467Z,991.69
2022-08-30T08:31:48.189Z,991.71
2022-08-30T08:32:48.147Z,991.72
2022-08-30T08:33:48.141Z,991.70
2022-08-30T08:34:48.118Z,991.74
2022-08-30T08:35:48.115Z,991.77
2022-08-30T08:36:48.088Z,991.72
2022-08-30T08:37:48.092Z,991.76
2022-08-30T08:38:48.069Z,991.72
2022-08-30T08:39:48.055Z,991.74
2022-08-30T08:40:48.046Z,991.74
2022-08-30T08:41:48.033Z,991.68
2022-08-30T08:42:48.064Z,991.65
2022-08-30T08:43:48.018Z,991.69
2022-08-30T08:45:48.004Z,991.73
2022-08-30T08:46:47.983Z,991.71
2022-08-30T08:47:47.984Z,991.71
2022-08-30T08:48:59.607Z,991.74
2022-08-30T08:49:48.966Z,991.72
2022-08-30T08:50:47.943Z,991.65
2022-08-30T08:51:47.927Z,991.64
2022-08-30T08:52:47.960Z,991.61
2022-08-30T08:53:47.935Z,991.65
2022-08-30T08:54:47.906Z,991.63
2022-08-30T08:56:47.878Z,991.59
2022-08-30T08:57:47.864Z,991.62
2022-08-30T08:58:47.881Z,991.60
2022-08-30T08:59:47.846Z,991.61
2022-08-30T09:00:47.840Z,991.60
2022-08-30T09:01:47.868Z,991.56
2022-08-30T09:02:47.819Z,991.59
2022-08-30T09:03:47.814Z,991.54
2022-08-30T09:04:47.868Z,991.55
2022-08-30T09:05:47.785Z,991.55
2022-08-30T09:06:47.770Z,991.56
2022-08-30T09:07:47.763Z,991.55
2022-08-30T09:08:47.776Z,991.57
2022-08-30T09:09:47.744Z,991.60
2022-08-30T09:10:50.902Z,991.54
2022-08-30T09:11:47.726Z,991.62
2022-08-30T09:12:47.786Z,991.58
2022-08-30T09:13:47.722Z,991.59
2022-08-30T09:14:47.694Z,991.61
2022-08-30T09:15:53.706Z,991.58
2022-08-30T09:16:48.673Z,991.56
2022-08-30T09:17:47.664Z,991.55
2022-08-30T09:18:50.240Z,991.57
2022-08-30T09:19:48.671Z,991.51
2022-08-30T09:20:47.628Z,991.51
2022-08-30T09:21:47.620Z,991.48
2022-08-30T09:22:48.621Z,991.44
2022-08-30T09:23:47.614Z,991.41
2022-08-30T09:24:47.585Z,991.40
2022-08-30T09:25:47.610Z,991.41
2022-08-30T09:26:47.576Z,991.40
2022-08-30T09:27:47.578Z,991.33
2022-08-30T09:29:48.540Z,991.32
2022-08-30T09:30:47.570Z,991.30
2022-08-30T09:31:47.518Z,991.32
2022-08-30T09:32:47.505Z,991.31
2022-08-30T09:33:47.513Z,991.35
2022-08-30T09:34:47.492Z,991.29
2022-08-30T09:35:47.499Z,991.23
2022-08-30T09:36:47.476Z,991.28
2022-08-30T09:37:47.473Z,991.25
2022-08-30T09:38:47.483Z,991.27
2022-08-30T09:39:47.434Z,991.28
2022-08-30T09:40:47.433Z,991.27
2022-08-30T09:41:47.414Z,991.24
2022-08-30T09:42:47.405Z,991.27
2022-08-30T09:43:47.417Z,991.33
2022-08-30T09:44:47.387Z,991.28
2022-08-30T09:45:47.438Z,991.29
2022-08-30T09:46:47.361Z,991.29
2022-08-30T09:47:47.349Z,991.28
2022-08-30T09:48:47.430Z,991.27
2022-08-30T09:49:47.339Z,991.25
2022-08-30T09:50:47.348Z,991.24
2022-08-30T09:51:47.324Z,991.22
2022-08-30T09:52:49.945Z,991.25
2022-08-30T09:54:07.363Z,991.23
2022-08-30T09:54:48.290Z,991.13
2022-08-30T09:55:47.269Z,991.17
2022-08-30T09:56:47.256Z,991.25
2022-08-30T09:57:47.251Z,991.17
2022-08-30T09:58:47.296Z,991.17
2022-08-30T09:59:47.238Z,991.01
2022-08-30T10:00:47.235Z,991.07
2022-08-30T10:01:47.218Z,991.09
2022-08-30T10:02:47.194Z,991.08
2022-08-30T10:03:47.198Z,991.06
2022-08-30T10:04:47.173Z,991.05
2022-08-30T10:05:47.168Z,991.08
2022-08-30T10:06:47.172Z,991.07
2022-08-30T10:07:47.208Z,991.04
2022-08-30T10:08:47.170Z,991.03
2022-08-30T10:09:47.127Z,990.99
2022-08-30T10:10:47.123Z,990.96
2022-08-30T10:11:47.103Z,991.04
2022-08-30T10:12:47.102Z,990.96
2022-08-30T10:13:47.084Z,991.01
2022-08-30T10:14:47.085Z,990.96
2022-08-30T10:15:47.062Z,990.93
2022-08-30T10:16:47.047Z,990.93
2022-08-30T10:17:47.053Z,990.95
2022-08-30T10:18:47.045Z,990.92
2022-08-30T10:19:47.053Z,990.91
2022-08-30T10:20:47.058Z,990.97
2022-08-30T10:21:47.007Z,990.98
2022-08-30T10:22:46.989Z,991.00
2022-08-30T10:23:46.978Z,991.01
2022-08-30T10:24:47.006Z,991.00
2022-08-30T10:25:46.957Z,991.03
2022-08-30T10:26:46.949Z,991.01
2022-08-30T10:27:46.942Z,991.01
2022-08-30T10:28:47.150Z,990.96
2022-08-30T10:29:46.972Z,990.95
2022-08-30T10:30:46.908Z,990.96
2022-08-30T10:31:46.924Z,990.93
2022-08-30T10:32:46.903Z,990.95
2022-08-30T10:33:46.904Z,990.96
2022-08-30T10:34:46.895Z,990.91
2022-08-30T10:35:46.857Z,990.97
2022-08-30T10:36:46.847Z,990.93
2022-08-30T10:37:46.853Z,990.94
2022-08-30T10:38:46.825Z,990.94
2022-08-30T10:39:46.841Z,990.87
2022-08-30T10:40:46.823Z,990.87
2022-08-30T10:41:46.821Z,990.87
2022-08-30T10:42:46.786Z,990.85
2022-08-30T10:43:46.815Z,990.86
2022-08-30T10:44:46.769Z,990.91
2022-08-30T10:45:46.754Z,990.84
2022-08-30T10:46:46.754Z,990.81
2022-08-30T10:47:46.732Z,990.82
2022-08-30T10:48:47.530Z,990.83
2022-08-30T10:49:46.747Z,990.84
2022-08-30T10:50:46.723Z,990.81
2022-08-30T10:51:46.715Z,990.80
2022-08-30T10:52:46.690Z,990.82
2022-08-30T10:53:46.675Z,990.82
2022-08-30T10:54:46.697Z,990.82
2022-08-30T10:55:50.026Z,990.80
2022-08-30T10:56:46.639Z,990.84
2022-08-30T10:57:46.633Z,990.83
2022-08-30T10:58:46.627Z,990.83
2022-08-30T10:59:46.634Z,990.79
2022-08-30T11:00:46.692Z,990.79
2022-08-30T11:01:47.016Z,990.78
2022-08-30T11:02:46.582Z,990.76
2022-08-30T11:03:46.581Z,990.70
2022-08-30T11:04:46.581Z,990.71
2022-08-30T11:05:46.576Z,990.76
2022-08-30T11:06:47.188Z,990.75
2022-08-30T11:07:46.532Z,990.77
2022-08-30T11:08:46.524Z,990.75
2022-08-30T11:09:46.527Z,990.74
2022-08-30T11:10:49.498Z,990.76
2022-08-30T11:11:46.549Z,990.73
2022-08-30T11:12:46.475Z,990.72
2022-08-30T11:13:46.482Z,990.72
2022-08-30T11:14:46.482Z,990.73
2022-08-30T11:15:46.446Z,990.75
2022-08-30T11:16:46.456Z,990.75
2022-08-30T11:17:46.475Z,990.75
2022-08-30T11:18:51.155Z,990.73
2022-08-30T11:19:47.435Z,990.74
2022-08-30T11:20:46.394Z,990.78
2022-08-30T11:21:46.385Z,990.76
2022-08-30T11:22:46.381Z,990.75
2022-08-30T11:23:46.385Z,990.72
2022-08-30T11:24:46.396Z,990.75
2022-08-30T11:25:46.460Z,990.75
2022-08-30T11:26:47.336Z,990.71
2022-08-30T11:27:46.340Z,990.69
2022-08-30T11:28:46.311Z,990.70
2022-08-30T11:29:46.343Z,990.66
2022-08-30T11:30:46.293Z,990.67
2022-08-30T11:31:47.520Z,990.67
2022-08-30T11:32:46.274Z,990.66
2022-08-30T11:33:46.406Z,990.64
2022-08-30T11:34:46.294Z,990.64
2022-08-30T11:35:48.634Z,990.61
2022-08-30T11:36:46.391Z,990.62
2022-08-30T11:37:46.250Z,990.62
2022-08-30T11:38:46.216Z,990.62
2022-08-30T11:39:46.220Z,990.58
2022-08-30T11:40:46.193Z,990.61
2022-08-30T11:41:46.377Z,990.59
2022-08-30T11:42:46.176Z,990.58
2022-08-30T11:43:46.162Z,990.57
2022-08-30T11:44:47.351Z,990.60
2022-08-30T11:45:46.189Z,990.57
2022-08-30T11:46:46.138Z,990.57
2022-08-30T11:47:46.143Z,990.55
2022-08-30T11:48:53.777Z,990.57
2022-08-30T11:49:47.125Z,990.51
2022-08-30T11:50:48.383Z,990.52
2022-08-30T11:52:28.607Z,990.51
2022-08-30T11:52:48.880Z,990.49
2022-08-30T11:53:46.067Z,990.47
2022-08-30T11:54:48.805Z,990.46
2022-08-30T11:55:46.053Z,990.44
2022-08-30T11:56:46.054Z,990.43
2022-08-30T11:57:46.033Z,990.41
2022-08-30T11:58:46.012Z,990.41
2022-08-30T11:59:46.030Z,990.38
2022-08-30T12:00:51.514Z,990.35
2022-08-30T12:01:51.235Z,990.35
2022-08-30T12:02:47.156Z,990.33
2022-08-30T12:03:46.158Z,990.31
2022-08-30T12:04:45.994Z,990.32
2022-08-30T12:05:45.961Z,990.33
2022-08-30T12:06:45.936Z,990.31
2022-08-30T12:07:45.931Z,990.30
2022-08-30T12:08:47.285Z,990.27
2022-08-30T12:09:45.918Z,990.30
2022-08-30T12:10:45.917Z,990.24
2022-08-30T12:11:45.892Z,990.31
2022-08-30T12:12:45.879Z,990.25
2022-08-30T12:13:45.866Z,990.25
2022-08-30T12:14:45.854Z,990.28
2022-08-30T12:15:45.859Z,990.30
2022-08-30T12:16:45.928Z,990.29
2022-08-30T12:17:45.842Z,990.27
2022-08-30T12:18:45.820Z,990.27
2022-08-30T12:19:50.347Z,990.26
2022-08-30T12:20:45.872Z,990.31
2022-08-30T12:21:45.782Z,990.23
2022-08-30T12:22:45.777Z,990.19
2022-08-30T12:23:45.768Z,990.16
2022-08-30T12:24:45.753Z,990.19
2022-08-30T12:25:45.771Z,990.14
2022-08-30T12:26:45.737Z,990.16
2022-08-30T12:27:45.740Z,990.16
2022-08-30T12:28:45.716Z,990.17
2022-08-30T12:29:45.724Z,990.16
2022-08-30T12:30:46.502Z,990.21
2022-08-30T12:31:45.755Z,990.14